createdAt,value
2019-04-27T00:01:48.367Z,25.10
2019-04-27T00:04:20.425Z,26.97
2019-04-27T00:06:53.398Z,28.62
2019-04-27T00:09:25.110Z,27.50
2019-04-27T00:11:56.886Z,26.73
2019-04-27T00:14:27.117Z,26.02
2019-04-27T00:16:59.138Z,26.10
2019-04-27T00:19:31.755Z,23.57
2019-04-27T00:22:03.944Z,25.10
2019-04-27T00:24:35.794Z,26.62
2019-04-27T00:27:06.278Z,30.32
2019-04-27T00:29:36.799Z,34.95
2019-04-27T00:32:07.508Z,29.23
2019-04-27T00:34:38.272Z,37.03
2019-04-27T00:37:10.174Z,29.07
2019-04-27T00:39:43.187Z,30.12
2019-04-27T00:42:13.699Z,36.50
2019-04-27T00:44:43.918Z,26.00
2019-04-27T00:47:14.284Z,37.73
2019-04-27T00:49:44.469Z,39.00
2019-04-27T00:52:14.555Z,40.40
2019-04-27T00:54:44.867Z,36.68
2019-04-27T00:57:16.355Z,35.90
2019-04-27T00:59:48.270Z,43.48
2019-04-27T01:02:19.837Z,42.40
2019-04-27T01:04:50.145Z,44.73
2019-04-27T01:07:20.598Z,58.70
2019-04-27T01:09:50.910Z,37.30
2019-04-27T01:12:21.621Z,45.10
2019-04-27T01:14:53.505Z,50.60
2019-04-27T01:17:23.586Z,43.23
2019-04-27T01:19:54.359Z,40.87
2019-04-27T01:22:24.604Z,35.37
2019-04-27T01:24:55.678Z,32.00
2019-04-27T01:27:28.975Z,34.53
2019-04-27T01:29:59.909Z,30.15
2019-04-27T01:32:30.123Z,30.62
2019-04-27T01:35:00.451Z,33.45
2019-04-27T01:37:30.741Z,28.75
2019-04-27T01:40:00.987Z,27.30
2019-04-27T01:42:31.128Z,29.77
2019-04-27T01:45:01.846Z,24.60
2019-04-27T01:47:32.157Z,32.75
2019-04-27T01:50:02.284Z,33.13
2019-04-27T01:52:32.746Z,26.82
2019-04-27T01:55:03.136Z,24.92
2019-04-27T01:57:33.350Z,45.05
2019-04-27T02:00:04.396Z,21.87
2019-04-27T02:02:35.939Z,21.87
2019-04-27T02:05:09.541Z,22.40
2019-04-27T02:07:39.786Z,23.23
2019-04-27T02:10:11.608Z,25.52
2019-04-27T02:12:43.879Z,23.52
2019-04-27T02:15:14.272Z,24.47
2019-04-27T02:17:44.658Z,31.12
2019-04-27T02:20:15.095Z,33.93
2019-04-27T02:22:45.388Z,34.40
2019-04-27T02:25:15.855Z,32.30
2019-04-27T02:27:49.022Z,34.25
2019-04-27T02:30:21.067Z,29.52
2019-04-27T02:32:52.710Z,33.18
2019-04-27T02:35:24.001Z,33.15
2019-04-27T02:37:54.637Z,38.15
2019-04-27T02:40:27.730Z,35.60
2019-04-27T02:42:59.807Z,22.30
2019-04-27T02:45:30.320Z,35.05
2019-04-27T02:48:00.615Z,45.52
2019-04-27T02:50:30.851Z,23.32
2019-04-27T02:53:03.272Z,25.85
2019-04-27T02:55:32.961Z,22.40
2019-04-27T02:58:03.272Z,22.80
2019-04-27T03:00:33.974Z,25.92
2019-04-27T03:03:05.468Z,20.77
2019-04-27T03:05:35.930Z,27.48
2019-04-27T03:08:06.492Z,29.65
2019-04-27T03:10:36.741Z,26.33
2019-04-27T03:13:08.322Z,23.00
2019-04-27T03:15:40.340Z,21.62
2019-04-27T03:18:11.868Z,22.40
2019-04-27T03:20:43.500Z,24.43
2019-04-27T03:23:14.470Z,22.87
2019-04-27T03:25:45.930Z,23.90
2019-04-27T03:28:16.451Z,21.55
2019-04-27T03:30:46.773Z,23.75
2019-04-27T03:33:17.066Z,22.85
2019-04-27T03:36:16.211Z,31.70
2019-04-27T03:38:46.570Z,51.93
2019-04-27T03:41:19.100Z,21.48
2019-04-27T03:43:50.302Z,26.77
2019-04-27T03:46:20.612Z,21.90
2019-04-27T03:48:50.865Z,19.80
2019-04-27T03:51:22.565Z,21.87
2019-04-27T03:53:57.127Z,26.60
2019-04-27T03:56:27.051Z,23.87
2019-04-27T03:58:59.808Z,25.35
2019-04-27T04:01:30.251Z,18.27
2019-04-27T04:04:00.643Z,18.82
2019-04-27T04:06:31.392Z,19.55
2019-04-27T04:09:01.874Z,29.25
2019-04-27T04:11:33.433Z,19.43
2019-04-27T04:14:05.214Z,19.80
2019-04-27T04:16:39.291Z,18.48
2019-04-27T04:19:10.586Z,21.42
2019-04-27T04:21:40.658Z,19.63
2019-04-27T04:24:12.038Z,19.73
2019-04-27T04:26:43.100Z,19.97
2019-04-27T04:29:13.309Z,21.80
2019-04-27T04:31:43.549Z,21.07
2019-04-27T04:34:13.945Z,23.60
2019-04-27T04:36:44.525Z,19.63
2019-04-27T04:39:15.033Z,19.02
2019-04-27T04:41:46.707Z,18.42
2019-04-27T04:44:20.339Z,18.53
2019-04-27T04:46:51.439Z,21.33
2019-04-27T04:49:21.952Z,18.15
2019-04-27T04:51:52.065Z,18.92
2019-04-27T04:54:24.574Z,18.10
2019-04-27T04:56:55.473Z,21.17
2019-04-27T04:59:26.045Z,21.02
2019-04-27T05:01:56.400Z,32.23
2019-04-27T05:04:26.770Z,19.80
2019-04-27T05:06:59.208Z,22.13
2019-04-27T05:09:29.694Z,30.73
2019-04-27T05:11:59.935Z,19.05
2019-04-27T05:14:30.437Z,19.67
2019-04-27T05:17:00.813Z,18.25
2019-04-27T05:19:31.285Z,18.55
2019-04-27T05:22:01.466Z,22.73
2019-04-27T05:24:31.994Z,19.05
2019-04-27T05:27:02.160Z,21.03
2019-04-27T05:29:32.353Z,21.37
2019-04-27T05:32:02.779Z,18.20
2019-04-27T05:34:32.995Z,20.32
2019-04-27T05:37:03.227Z,20.75
2019-04-27T05:39:33.647Z,20.60
2019-04-27T05:42:04.063Z,19.82
2019-04-27T05:44:39.691Z,19.45
2019-04-27T05:47:13.160Z,18.77
2019-04-27T05:49:45.211Z,18.75
2019-04-27T05:52:29.048Z,19.50
2019-04-27T05:54:59.307Z,19.25
2019-04-27T05:57:31.407Z,20.12
2019-04-27T06:00:02.476Z,21.90
2019-04-27T06:02:33.005Z,19.40
2019-04-27T06:05:03.372Z,25.55
2019-04-27T06:07:33.638Z,20.35
2019-04-27T06:10:03.985Z,24.63
2019-04-27T06:12:34.495Z,18.50
2019-04-27T06:15:05.138Z,26.12
2019-04-27T06:17:35.673Z,33.13
2019-04-27T06:20:09.093Z,21.00
2019-04-27T06:22:39.447Z,19.98
2019-04-27T06:25:11.568Z,20.43
2019-04-27T06:27:41.542Z,19.55
2019-04-27T06:30:12.468Z,22.50
2019-04-27T06:32:42.938Z,23.35
2019-04-27T06:35:13.648Z,23.40
2019-04-27T06:37:44.104Z,19.85
2019-04-27T06:40:14.714Z,20.15
2019-04-27T06:42:45.025Z,19.73
2019-04-27T06:45:15.410Z,19.80
2019-04-27T06:47:45.663Z,21.40
2019-04-27T06:50:16.007Z,20.80
2019-04-27T06:52:46.001Z,18.57
2019-04-27T06:55:18.773Z,18.83
2019-04-27T06:57:49.225Z,19.70
2019-04-27T07:00:19.514Z,19.20
2019-04-27T07:02:49.900Z,21.60
2019-04-27T07:05:20.484Z,18.87
2019-04-27T07:07:50.775Z,18.60
2019-04-27T07:10:20.802Z,18.65
2019-04-27T07:12:52.244Z,20.45
2019-04-27T07:15:22.381Z,23.17
2019-04-27T07:17:52.888Z,19.15
2019-04-27T07:21:51.544Z,19.00
2019-04-27T07:24:24.666Z,18.25
2019-04-27T07:26:55.030Z,18.52
2019-04-27T07:29:25.399Z,18.20
2019-04-27T07:31:55.803Z,17.75
2019-04-27T07:34:26.190Z,17.87
2019-04-27T07:36:56.715Z,19.50
2019-04-27T07:39:26.913Z,17.73
2019-04-27T07:41:58.576Z,16.97
2019-04-27T07:44:30.345Z,17.82
2019-04-27T07:47:01.813Z,19.67
2019-04-27T07:49:32.175Z,18.27
2019-04-27T07:52:02.729Z,18.10
2019-04-27T07:55:08.587Z,23.65
2019-04-27T07:57:39.972Z,16.77
2019-04-27T08:00:11.781Z,20.08
2019-04-27T08:02:42.247Z,17.50
2019-04-27T08:05:12.856Z,17.10
2019-04-27T08:07:43.331Z,17.40
2019-04-27T08:10:14.156Z,17.25
2019-04-27T08:12:44.368Z,19.13
2019-04-27T08:15:14.891Z,29.27
2019-04-27T08:17:45.274Z,18.15
2019-04-27T08:20:15.684Z,30.53
2019-04-27T08:22:49.651Z,19.17
2019-04-27T08:25:20.784Z,17.55
2019-04-27T08:27:53.440Z,18.45
2019-04-27T08:30:26.179Z,16.67
2019-04-27T08:32:59.263Z,22.25
2019-04-27T08:35:32.513Z,18.73
2019-04-27T08:38:01.544Z,16.77
2019-04-27T08:40:31.889Z,16.42
2019-04-27T08:43:02.162Z,39.67
2019-04-27T08:48:15.660Z,16.97
2019-04-27T08:50:46.249Z,18.62
2019-04-27T08:53:18.510Z,17.10
2019-04-27T08:55:52.786Z,17.52
2019-04-27T08:58:29.973Z,28.38
2019-04-27T09:01:01.179Z,22.58
2019-04-27T09:03:31.687Z,18.15
2019-04-27T09:06:01.991Z,18.27
2019-04-27T09:08:33.524Z,17.25
2019-04-27T09:11:05.053Z,18.73
2019-04-27T09:13:36.647Z,33.55
2019-04-27T09:16:09.260Z,17.85
2019-04-27T09:18:41.000Z,16.90
2019-04-27T09:21:11.883Z,18.20
2019-04-27T09:23:42.280Z,18.00
2019-04-27T09:26:12.709Z,18.85
2019-04-27T09:28:42.933Z,20.25
2019-04-27T09:31:13.303Z,32.53
2019-04-27T09:33:43.636Z,18.65
2019-04-27T09:36:13.980Z,19.77
2019-04-27T09:38:46.282Z,18.87
2019-04-27T09:41:16.979Z,21.40
2019-04-27T09:43:47.555Z,19.00
2019-04-27T09:46:17.880Z,19.37
2019-04-27T09:48:50.346Z,21.85
2019-04-27T09:51:20.589Z,21.57
2019-04-27T09:53:50.876Z,18.57
2019-04-27T09:56:21.242Z,54.38
2019-04-27T09:58:51.574Z,18.80
2019-04-27T10:01:21.696Z,17.70
2019-04-27T10:03:52.252Z,24.12
2019-04-27T10:06:22.568Z,18.48
2019-04-27T10:08:52.784Z,17.50
2019-04-27T10:11:23.305Z,16.57
2019-04-27T10:13:55.528Z,17.98
2019-04-27T10:16:25.674Z,18.48
2019-04-27T10:18:56.056Z,18.67
2019-04-27T10:21:26.450Z,18.23
2019-04-27T10:23:56.818Z,17.27
2019-04-27T10:26:27.188Z,17.20
2019-04-27T10:28:57.527Z,17.40
2019-04-27T10:31:27.774Z,16.65
2019-04-27T10:33:58.088Z,20.08
2019-04-27T10:36:29.601Z,20.63
2019-04-27T10:39:00.212Z,18.15
2019-04-27T10:41:30.795Z,18.00
2019-04-27T10:44:01.285Z,17.00
2019-04-27T10:46:31.527Z,17.17
2019-04-27T10:49:02.097Z,18.98
2019-04-27T10:51:32.399Z,18.23
2019-04-27T10:54:02.867Z,21.37
2019-04-27T10:56:33.178Z,19.30
2019-04-27T10:59:03.797Z,19.95
2019-04-27T11:01:35.816Z,23.12
2019-04-27T11:04:07.545Z,22.87
2019-04-27T11:06:38.904Z,19.60
2019-04-27T11:09:12.150Z,19.85
2019-04-27T11:11:43.149Z,25.75
2019-04-27T11:14:13.673Z,21.02
2019-04-27T11:16:45.791Z,21.33
2019-04-27T11:19:16.861Z,22.40
2019-04-27T11:21:47.470Z,23.07
2019-04-27T11:24:17.896Z,23.35
2019-04-27T11:26:48.011Z,24.35
2019-04-27T11:29:18.398Z,24.50
2019-04-27T11:31:48.866Z,28.75
2019-04-27T11:34:19.558Z,35.05
2019-04-27T11:36:51.275Z,28.43
2019-04-27T11:39:21.924Z,27.75
2019-04-27T11:41:53.002Z,24.55
2019-04-27T11:44:23.272Z,24.95
2019-04-27T11:46:53.596Z,27.93
2019-04-27T11:49:25.674Z,29.55
2019-04-27T11:51:56.707Z,28.57
2019-04-27T11:54:27.546Z,26.57
2019-04-27T11:56:58.046Z,32.58
2019-04-27T12:01:57.038Z,22.10
2019-04-27T12:04:27.227Z,23.02
2019-04-27T12:06:57.425Z,24.90
2019-04-27T12:09:27.844Z,22.25
2019-04-27T12:12:12.437Z,24.07
2019-04-27T12:14:30.075Z,22.37
2019-04-27T12:17:00.297Z,23.87
2019-04-27T12:19:30.464Z,26.55
2019-04-27T12:22:00.777Z,23.55
2019-04-27T12:27:12.900Z,21.47
2019-04-27T12:29:45.419Z,24.63
2019-04-27T12:32:16.476Z,22.50
2019-04-27T12:34:46.647Z,18.42
2019-04-27T12:37:16.845Z,16.90
2019-04-27T12:39:47.640Z,16.47
2019-04-27T12:42:20.946Z,18.10
2019-04-27T12:44:49.567Z,16.32
2019-04-27T12:47:19.865Z,16.17
2019-04-27T12:49:50.127Z,17.67
2019-04-27T12:52:21.451Z,17.82
2019-04-27T12:54:53.487Z,19.23
2019-04-27T12:57:26.338Z,16.17
2019-04-27T12:59:58.140Z,16.75
2019-04-27T13:02:30.216Z,17.65
2019-04-27T13:05:01.309Z,15.68
2019-04-27T13:07:31.618Z,14.78
2019-04-27T13:10:01.911Z,14.93
2019-04-27T13:12:32.278Z,17.00
2019-04-27T13:15:02.434Z,17.00
2019-04-27T13:17:32.984Z,20.70
2019-04-27T13:20:03.221Z,19.65
2019-04-27T13:22:33.577Z,21.60
2019-04-27T13:25:05.657Z,19.40
2019-04-27T13:27:36.777Z,17.23
2019-04-27T13:30:09.436Z,18.12
2019-04-27T13:32:39.828Z,15.23
2019-04-27T13:35:11.480Z,16.15
2019-04-27T13:37:43.082Z,13.30
2019-04-27T13:40:17.095Z,13.48
2019-04-27T13:42:48.816Z,15.23
2019-04-27T13:45:20.557Z,17.42
2019-04-27T13:47:52.044Z,17.50
2019-04-27T13:50:23.842Z,14.37
2019-04-27T13:52:54.180Z,14.33
2019-04-27T13:55:24.523Z,13.48
2019-04-27T13:57:55.381Z,12.70
2019-04-27T14:00:25.659Z,12.57
2019-04-27T14:02:55.953Z,13.05
2019-04-27T14:05:26.262Z,15.48
2019-04-27T14:07:56.547Z,13.72
2019-04-27T14:10:28.613Z,15.25
2019-04-27T14:12:59.107Z,13.58
2019-04-27T14:15:29.452Z,13.13
2019-04-27T14:18:00.026Z,12.80
2019-04-27T14:20:30.371Z,14.05
2019-04-27T14:23:03.565Z,14.53
2019-04-27T14:25:34.178Z,14.20
2019-04-27T14:28:04.659Z,13.05
2019-04-27T14:30:34.859Z,15.30
2019-04-27T14:33:05.335Z,13.68
2019-04-27T14:35:35.521Z,12.93
2019-04-27T14:38:05.850Z,13.88
2019-04-27T14:40:36.370Z,14.85
2019-04-27T14:43:08.390Z,19.35
2019-04-27T14:45:39.751Z,12.95
2019-04-27T14:48:12.802Z,14.63
2019-04-27T14:50:42.668Z,13.77
2019-04-27T14:53:13.091Z,12.75
2019-04-27T14:55:43.527Z,13.53
2019-04-27T14:58:13.879Z,14.40
2019-04-27T15:00:44.345Z,14.47
2019-04-27T15:03:14.989Z,14.80
2019-04-27T15:05:45.099Z,16.42
2019-04-27T15:08:15.459Z,14.83
2019-04-27T15:10:46.438Z,16.02
2019-04-27T15:13:18.727Z,13.13
2019-04-27T15:15:48.792Z,13.28
2019-04-27T15:18:20.159Z,13.20
2019-04-27T15:20:51.736Z,15.05
2019-04-27T15:23:22.110Z,14.23
2019-04-27T15:25:52.676Z,14.23
2019-04-27T15:28:24.111Z,13.70
2019-04-27T15:30:56.104Z,14.07
2019-04-27T15:33:28.986Z,15.85
2019-04-27T15:36:00.809Z,16.57
2019-04-27T15:38:32.342Z,16.20
2019-04-27T15:41:04.005Z,14.85
2019-04-27T15:43:35.620Z,15.98
2019-04-27T15:46:05.899Z,14.60
2019-04-27T15:48:38.114Z,15.28
2019-04-27T15:51:16.447Z,17.82
2019-04-27T15:53:41.599Z,17.23
2019-04-27T15:56:11.323Z,17.57
2019-04-27T15:58:41.594Z,16.45
2019-04-27T16:01:12.132Z,17.03
2019-04-27T16:03:42.452Z,16.57
2019-04-27T16:06:13.014Z,18.32
2019-04-27T16:08:44.955Z,16.73
2019-04-27T16:11:16.637Z,16.20
2019-04-27T16:13:48.655Z,16.20
2019-04-27T16:16:19.616Z,17.05
2019-04-27T16:18:50.074Z,19.57
2019-04-27T16:21:20.961Z,17.13
2019-04-27T16:23:51.568Z,17.00
2019-04-27T16:26:22.000Z,18.30
2019-04-27T16:28:53.463Z,18.87
2019-04-27T16:31:24.844Z,18.20
2019-04-27T16:34:01.005Z,17.77
2019-04-27T16:36:28.816Z,17.80
2019-04-27T16:39:03.802Z,19.23
2019-04-27T16:41:33.045Z,22.32
2019-04-27T16:44:06.829Z,18.95
2019-04-27T16:46:39.489Z,21.17
2019-04-27T16:49:13.669Z,21.27
2019-04-27T16:51:40.295Z,19.48
2019-04-27T16:54:17.274Z,24.10
2019-04-27T16:56:45.778Z,20.62
2019-04-27T16:59:36.518Z,20.72
2019-04-27T17:01:47.357Z,20.45
2019-04-27T17:04:17.866Z,21.68
2019-04-27T17:06:49.507Z,21.48
2019-04-27T17:09:20.041Z,23.30
2019-04-27T17:11:51.810Z,22.13
2019-04-27T17:14:28.919Z,22.02
2019-04-27T17:16:58.025Z,22.43
2019-04-27T17:19:30.631Z,23.20
2019-04-27T17:22:00.733Z,22.93
2019-04-27T17:24:37.426Z,24.05
2019-04-27T17:27:05.479Z,25.27
2019-04-27T17:29:38.551Z,25.50
2019-04-27T17:32:10.503Z,27.05
2019-04-27T17:34:40.867Z,30.37
2019-04-27T17:37:11.331Z,27.37
2019-04-27T17:39:41.647Z,26.55
2019-04-27T17:42:11.998Z,25.62
2019-04-27T17:44:42.356Z,26.07
2019-04-27T17:47:12.608Z,25.60
2019-04-27T17:49:42.913Z,26.00
2019-04-27T17:52:17.135Z,26.70
2019-04-27T17:54:47.325Z,25.20
2019-04-27T17:57:17.917Z,24.95
2019-04-27T17:59:51.340Z,24.95
2019-04-27T18:02:20.171Z,25.05
2019-04-27T18:04:50.591Z,25.25
2019-04-27T18:07:20.895Z,25.65
2019-04-27T18:09:51.390Z,25.67
2019-04-27T18:12:21.784Z,24.85
2019-04-27T18:14:51.967Z,25.15
2019-04-27T18:17:23.003Z,25.30
2019-04-27T18:19:54.995Z,25.20
2019-04-27T18:22:25.379Z,25.05
2019-04-27T18:25:03.432Z,24.37
2019-04-27T18:27:33.477Z,24.30
2019-04-27T18:30:04.619Z,24.70
2019-04-27T18:32:35.257Z,24.65
2019-04-27T18:35:08.072Z,24.90
2019-04-27T18:37:38.911Z,24.98
2019-04-27T18:40:09.439Z,24.80
2019-04-27T18:42:39.975Z,26.23
2019-04-27T18:45:10.649Z,27.02
2019-04-27T18:47:42.062Z,26.57
2019-04-27T18:50:14.931Z,25.90
2019-04-27T18:52:49.601Z,26.80
2019-04-27T18:55:20.682Z,27.90
2019-04-27T18:57:54.097Z,25.80
2019-04-27T19:00:23.325Z,27.50
2019-04-27T19:02:53.384Z,25.62
2019-04-27T19:05:23.647Z,24.63
2019-04-27T19:07:54.036Z,25.15
2019-04-27T19:10:24.537Z,25.80
2019-04-27T19:12:54.884Z,24.57
2019-04-27T19:15:25.305Z,26.17
2019-04-27T19:17:55.839Z,26.10
2019-04-27T19:20:25.966Z,24.32
2019-04-27T19:22:56.101Z,23.95
2019-04-27T19:25:28.774Z,23.38
2019-04-27T19:28:00.533Z,23.67
2019-04-27T19:30:33.590Z,24.27
2019-04-27T19:33:04.314Z,23.15
2019-04-27T19:35:34.602Z,22.55
2019-04-27T19:38:05.076Z,21.85
2019-04-27T19:40:35.446Z,21.13
2019-04-27T19:43:05.979Z,20.62
2019-04-27T19:45:36.703Z,20.37
2019-04-27T19:48:10.320Z,20.50
2019-04-27T19:50:39.251Z,23.25
2019-04-27T19:53:10.954Z,19.73
2019-04-27T19:55:41.133Z,21.55
2019-04-27T19:58:11.781Z,19.87
2019-04-27T20:00:43.317Z,20.68
2019-04-27T20:03:14.930Z,19.10
2019-04-27T20:05:45.258Z,20.25
2019-04-27T20:08:17.072Z,19.30
2019-04-27T20:10:47.341Z,19.37
2019-04-27T20:13:17.992Z,23.22
2019-04-27T20:15:51.148Z,19.90
2019-04-27T20:18:20.916Z,18.27
2019-04-27T20:20:51.108Z,21.73
2019-04-27T20:23:22.420Z,19.80
2019-04-27T20:25:52.722Z,17.80
2019-04-27T20:28:23.109Z,22.30
2019-04-27T20:30:53.381Z,20.17
2019-04-27T20:33:23.673Z,19.23
2019-04-27T20:35:53.904Z,20.95
2019-04-27T20:38:25.205Z,19.10
2019-04-27T20:40:55.400Z,19.45
2019-04-27T20:43:25.768Z,19.77
2019-04-27T20:45:55.788Z,18.67
2019-04-27T20:48:26.154Z,21.07
2019-04-27T20:50:56.468Z,19.87
2019-04-27T20:53:28.062Z,20.55
2019-04-27T20:55:58.355Z,20.32
2019-04-27T20:58:28.624Z,20.30
2019-04-27T21:00:58.892Z,20.80
2019-04-27T21:03:32.514Z,20.88
2019-04-27T21:06:03.166Z,20.95
2019-04-27T21:08:34.834Z,20.97
2019-04-27T21:11:05.114Z,23.13
2019-04-27T21:13:35.445Z,23.85
2019-04-27T21:16:06.148Z,23.65
2019-04-27T21:18:36.460Z,25.52
2019-04-27T21:21:06.617Z,24.90
2019-04-27T21:23:37.007Z,26.27
2019-04-27T21:26:07.100Z,24.20
2019-04-27T21:28:38.427Z,26.17
2019-04-27T21:31:08.503Z,25.48
2019-04-27T21:33:40.753Z,24.65
2019-04-27T21:36:11.745Z,26.15
2019-04-27T21:38:42.977Z,23.83
2019-04-27T21:41:13.416Z,23.32
2019-04-27T21:43:43.934Z,27.58
2019-04-27T21:46:14.367Z,27.40
2019-04-27T21:48:44.679Z,25.70
2019-04-27T21:51:14.998Z,24.50
2019-04-27T21:53:46.613Z,24.55
2019-04-27T21:56:16.799Z,26.77
2019-04-27T21:58:47.217Z,24.92
2019-04-27T22:01:19.407Z,25.50
2019-04-27T22:03:50.611Z,27.55
2019-04-27T22:06:21.414Z,27.05
2019-04-27T22:08:51.776Z,25.30
2019-04-27T22:11:22.161Z,30.48
2019-04-27T22:13:52.543Z,29.75
2019-04-27T22:16:23.039Z,32.30
2019-04-27T22:18:53.318Z,25.92
2019-04-27T22:21:23.602Z,26.77
2019-04-27T22:23:55.242Z,28.73
2019-04-27T22:26:25.539Z,27.75
2019-04-27T22:28:55.753Z,30.75
2019-04-27T22:31:25.992Z,29.63
2019-04-27T22:33:56.303Z,27.50
2019-04-27T22:36:26.760Z,28.00
2019-04-27T22:38:58.480Z,29.80
2019-04-27T22:41:31.400Z,29.98
2019-04-27T22:44:02.894Z,32.93
2019-04-27T22:46:34.601Z,30.75
2019-04-27T22:49:05.044Z,33.08
2019-04-27T22:51:35.274Z,30.25
2019-04-27T22:54:05.504Z,32.08
2019-04-27T22:56:35.937Z,31.77
2019-04-27T22:59:07.632Z,35.30
2019-04-27T23:01:40.691Z,35.28
2019-04-27T23:04:12.849Z,35.17
2019-04-27T23:06:43.890Z,36.60
2019-04-27T23:09:14.259Z,38.85
2019-04-27T23:11:44.851Z,34.20
2019-04-27T23:14:15.260Z,36.30
2019-04-27T23:16:47.043Z,36.77
2019-04-27T23:19:17.310Z,37.10
2019-04-27T23:21:47.632Z,38.40
2019-04-27T23:24:17.858Z,42.10
2019-04-27T23:26:48.186Z,44.33
2019-04-27T23:29:18.537Z,44.98
2019-04-27T23:31:49.917Z,42.98
2019-04-27T23:34:21.646Z,42.33
2019-04-27T23:36:52.101Z,41.77
2019-04-27T23:39:22.170Z,41.60
2019-04-27T23:41:52.454Z,44.27
2019-04-27T23:44:22.806Z,40.70
2019-04-27T23:46:53.255Z,36.23
2019-04-27T23:49:23.365Z,33.38
2019-04-27T23:51:54.991Z,35.45
2019-04-27T23:54:25.313Z,32.65
2019-04-27T23:56:55.644Z,35.30
2019-04-27T23:59:27.173Z,32.20
